sensor_id;sensor_type;location;lat;lon;timestamp;P1;durP1;ratioP1;P2;durP2;ratioP2
1591;SDS011;789;51.612;7.510;2023-08-08T00:00:15;6.50;;;4.00;;
1591;SDS011;789;51.612;7.510;2023-08-08T00:02:44;5.40;;;3.80;;
1591;SDS011;789;51.612;7.510;2023-08-08T00:05:12;9.77;;;4.60;;
1591;SDS011;789;51.612;7.510;2023-08-08T00:07:38;5.23;;;3.97;;
1591;SDS011;789;51.612;7.510;2023-08-08T00:10:06;5.03;;;4.53;;
1591;SDS011;789;51.612;7.510;2023-08-08T00:12:33;7.37;;;4.70;;
1591;SDS011;789;51.612;7.510;2023-08-08T00:15:00;5.80;;;4.43;;
1591;SDS011;789;51.612;7.510;2023-08-08T00:17:27;7.53;;;4.93;;
1591;SDS011;789;51.612;7.510;2023-08-08T00:19:54;5.40;;;4.70;;
1591;SDS011;789;51.612;7.510;2023-08-08T00:22:22;6.27;;;4.17;;
1591;SDS011;789;51.612;7.510;2023-08-08T00:24:48;5.50;;;4.60;;
1591;SDS011;789;51.612;7.510;2023-08-08T00:27:15;7.77;;;4.50;;
1591;SDS011;789;51.612;7.510;2023-08-08T00:29:42;7.10;;;4.37;;
1591;SDS011;789;51.612;7.510;2023-08-08T00:32:10;6.90;;;4.43;;
1591;SDS011;789;51.612;7.510;2023-08-08T00:34:37;9.57;;;4.30;;
1591;SDS011;789;51.612;7.510;2023-08-08T00:37:04;4.90;;;3.83;;
1591;SDS011;789;51.612;7.510;2023-08-08T00:39:32;5.63;;;4.50;;
1591;SDS011;789;51.612;7.510;2023-08-08T00:41:59;5.53;;;4.30;;
1591;SDS011;789;51.612;7.510;2023-08-08T00:44:26;5.60;;;4.20;;
1591;SDS011;789;51.612;7.510;2023-08-08T00:46:54;4.97;;;4.40;;
1591;SDS011;789;51.612;7.510;2023-08-08T00:49:21;6.20;;;4.10;;
1591;SDS011;789;51.612;7.510;2023-08-08T00:51:48;4.40;;;4.00;;
1591;SDS011;789;51.612;7.510;2023-08-08T00:54:16;7.40;;;4.40;;
1591;SDS011;789;51.612;7.510;2023-08-08T00:56:44;5.97;;;4.33;;
1591;SDS011;789;51.612;7.510;2023-08-08T00:59:11;5.40;;;4.90;;
1591;SDS011;789;51.612;7.510;2023-08-08T01:01:39;6.17;;;4.97;;
1591;SDS011;789;51.612;7.510;2023-08-08T01:04:06;4.80;;;4.30;;
1591;SDS011;789;51.612;7.510;2023-08-08T01:06:35;8.83;;;4.23;;
1591;SDS011;789;51.612;7.510;2023-08-08T01:09:08;4.40;;;4.00;;
1591;SDS011;789;51.612;7.510;2023-08-08T01:11:43;6.90;;;3.90;;
1591;SDS011;789;51.612;7.510;2023-08-08T01:14:13;6.73;;;4.30;;
1591;SDS011;789;51.612;7.510;2023-08-08T01:16:41;6.07;;;4.60;;
1591;SDS011;789;51.612;7.510;2023-08-08T01:19:09;4.40;;;4.00;;
1591;SDS011;789;51.612;7.510;2023-08-08T01:21:41;5.30;;;4.03;;
1591;SDS011;789;51.612;7.510;2023-08-08T01:24:17;4.97;;;3.43;;
1591;SDS011;789;51.612;7.510;2023-08-08T01:26:45;5.00;;;3.23;;
1591;SDS011;789;51.612;7.510;2023-08-08T01:29:13;5.67;;;3.40;;
1591;SDS011;789;51.612;7.510;2023-08-08T01:31:40;5.07;;;3.13;;
1591;SDS011;789;51.612;7.510;2023-08-08T01:34:06;4.50;;;3.13;;
1591;SDS011;789;51.612;7.510;2023-08-08T01:36:35;5.10;;;3.50;;
1591;SDS011;789;51.612;7.510;2023-08-08T01:39:09;3.97;;;2.80;;
1591;SDS011;789;51.612;7.510;2023-08-08T01:41:41;3.40;;;3.10;;
1591;SDS011;789;51.612;7.510;2023-08-08T01:44:09;3.83;;;3.20;;
1591;SDS011;789;51.612;7.510;2023-08-08T01:46:36;4.87;;;3.13;;
1591;SDS011;789;51.612;7.510;2023-08-08T01:49:04;3.50;;;2.93;;
1591;SDS011;789;51.612;7.510;2023-08-08T01:51:31;5.83;;;3.03;;
1591;SDS011;789;51.612;7.510;2023-08-08T01:53:58;4.40;;;3.07;;
1591;SDS011;789;51.612;7.510;2023-08-08T01:56:24;3.33;;;3.03;;
1591;SDS011;789;51.612;7.510;2023-08-08T01:58:53;3.33;;;2.50;;
1591;SDS011;789;51.612;7.510;2023-08-08T02:01:19;4.93;;;3.33;;
1591;SDS011;789;51.612;7.510;2023-08-08T02:03:48;3.10;;;2.80;;
1591;SDS011;789;51.612;7.510;2023-08-08T02:06:15;4.63;;;3.47;;
1591;SDS011;789;51.612;7.510;2023-08-08T02:08:41;4.53;;;2.80;;
1591;SDS011;789;51.612;7.510;2023-08-08T02:11:08;3.67;;;3.17;;
1591;SDS011;789;51.612;7.510;2023-08-08T02:13:35;3.47;;;2.60;;
1591;SDS011;789;51.612;7.510;2023-08-08T02:16:04;3.60;;;3.03;;
1591;SDS011;789;51.612;7.510;2023-08-08T02:18:30;6.80;;;3.70;;
1591;SDS011;789;51.612;7.510;2023-08-08T02:20:57;7.03;;;3.40;;
1591;SDS011;789;51.612;7.510;2023-08-08T02:23:24;6.53;;;3.30;;
1591;SDS011;789;51.612;7.510;2023-08-08T02:25:51;6.10;;;3.30;;
1591;SDS011;789;51.612;7.510;2023-08-08T02:28:18;4.20;;;3.00;;
1591;SDS011;789;51.612;7.510;2023-08-08T02:30:45;4.67;;;3.13;;
1591;SDS011;789;51.612;7.510;2023-08-08T02:33:13;4.10;;;3.47;;
1591;SDS011;789;51.612;7.510;2023-08-08T02:35:40;4.37;;;3.47;;
1591;SDS011;789;51.612;7.510;2023-08-08T02:38:06;5.13;;;3.33;;
1591;SDS011;789;51.612;7.510;2023-08-08T02:40:33;3.87;;;3.10;;
1591;SDS011;789;51.612;7.510;2023-08-08T02:43:00;6.47;;;3.40;;
1591;SDS011;789;51.612;7.510;2023-08-08T02:45:27;6.17;;;3.37;;
1591;SDS011;789;51.612;7.510;2023-08-08T02:47:54;3.97;;;3.57;;
1591;SDS011;789;51.612;7.510;2023-08-08T02:50:22;5.80;;;3.60;;
1591;SDS011;789;51.612;7.510;2023-08-08T02:52:49;4.80;;;3.87;;
1591;SDS011;789;51.612;7.510;2023-08-08T02:55:16;4.87;;;3.23;;
1591;SDS011;789;51.612;7.510;2023-08-08T02:57:43;6.37;;;3.30;;
1591;SDS011;789;51.612;7.510;2023-08-08T03:00:13;6.40;;;3.53;;
1591;SDS011;789;51.612;7.510;2023-08-08T03:02:40;3.90;;;3.47;;
1591;SDS011;789;51.612;7.510;2023-08-08T03:05:07;10.23;;;4.07;;
1591;SDS011;789;51.612;7.510;2023-08-08T03:07:37;6.67;;;3.43;;
1591;SDS011;789;51.612;7.510;2023-08-08T03:10:04;7.50;;;3.60;;
1591;SDS011;789;51.612;7.510;2023-08-08T03:12:31;4.40;;;3.30;;
1591;SDS011;789;51.612;7.510;2023-08-08T03:14:58;4.03;;;3.53;;
1591;SDS011;789;51.612;7.510;2023-08-08T03:17:25;4.43;;;3.83;;
1591;SDS011;789;51.612;7.510;2023-08-08T03:19:51;3.70;;;3.40;;
1591;SDS011;789;51.612;7.510;2023-08-08T03:22:18;3.70;;;3.40;;
1591;SDS011;789;51.612;7.510;2023-08-08T03:24:46;4.33;;;3.50;;
1591;SDS011;789;51.612;7.510;2023-08-08T03:27:13;7.87;;;4.17;;
1591;SDS011;789;51.612;7.510;2023-08-08T03:29:40;4.13;;;3.77;;
1591;SDS011;789;51.612;7.510;2023-08-08T03:32:06;6.50;;;4.50;;
1591;SDS011;789;51.612;7.510;2023-08-08T03:34:33;5.63;;;4.93;;
1591;SDS011;789;51.612;7.510;2023-08-08T03:37:00;6.50;;;3.90;;
1591;SDS011;789;51.612;7.510;2023-08-08T03:39:27;9.90;;;5.20;;
1591;SDS011;789;51.612;7.510;2023-08-08T03:41:55;6.83;;;4.53;;
1591;SDS011;789;51.612;7.510;2023-08-08T03:44:22;10.37;;;5.07;;
1591;SDS011;789;51.612;7.510;2023-08-08T03:46:49;8.80;;;5.57;;
1591;SDS011;789;51.612;7.510;2023-08-08T03:49:16;10.50;;;5.70;;
1591;SDS011;789;51.612;7.510;2023-08-08T03:51:43;9.73;;;6.30;;
1591;SDS011;789;51.612;7.510;2023-08-08T03:54:10;6.37;;;5.63;;
1591;SDS011;789;51.612;7.510;2023-08-08T03:56:50;12.57;;;6.47;;
1591;SDS011;789;51.612;7.510;2023-08-08T03:59:19;8.00;;;6.03;;
1591;SDS011;789;51.612;7.510;2023-08-08T04:01:46;10.53;;;6.70;;
1591;SDS011;789;51.612;7.510;2023-08-08T04:04:13;9.60;;;6.40;;
1591;SDS011;789;51.612;7.510;2023-08-08T04:06:40;6.43;;;5.70;;
1591;SDS011;789;51.612;7.510;2023-08-08T04:09:07;10.00;;;6.03;;
1591;SDS011;789;51.612;7.510;2023-08-08T04:11:34;7.83;;;6.80;;
1591;SDS011;789;51.612;7.510;2023-08-08T04:14:08;8.30;;;5.53;;
1591;SDS011;789;51.612;7.510;2023-08-08T04:16:42;12.40;;;6.07;;
1591;SDS011;789;51.612;7.510;2023-08-08T04:19:09;8.70;;;5.87;;
1591;SDS011;789;51.612;7.510;2023-08-08T04:21:36;8.10;;;6.37;;
1591;SDS011;789;51.612;7.510;2023-08-08T04:24:03;10.20;;;6.63;;
1591;SDS011;789;51.612;7.510;2023-08-08T04:26:30;9.00;;;6.10;;
1591;SDS011;789;51.612;7.510;2023-08-08T04:28:57;13.27;;;5.90;;
1591;SDS011;789;51.612;7.510;2023-08-08T04:31:24;8.20;;;6.10;;
1591;SDS011;789;51.612;7.510;2023-08-08T04:33:52;7.13;;;6.07;;
1591;SDS011;789;51.612;7.510;2023-08-08T04:36:23;12.33;;;6.70;;
1591;SDS011;789;51.612;7.510;2023-08-08T04:38:50;8.90;;;5.57;;
1591;SDS011;789;51.612;7.510;2023-08-08T04:41:16;8.70;;;6.90;;
1591;SDS011;789;51.612;7.510;2023-08-08T04:43:43;6.20;;;5.70;;
1591;SDS011;789;51.612;7.510;2023-08-08T04:46:10;9.43;;;6.23;;
1591;SDS011;789;51.612;7.510;2023-08-08T04:48:37;11.00;;;6.37;;
1591;SDS011;789;51.612;7.510;2023-08-08T04:51:05;9.20;;;6.40;;
1591;SDS011;789;51.612;7.510;2023-08-08T04:53:34;8.80;;;6.60;;
1591;SDS011;789;51.612;7.510;2023-08-08T04:56:01;9.10;;;7.33;;
1591;SDS011;789;51.612;7.510;2023-08-08T04:58:28;12.43;;;7.03;;
1591;SDS011;789;51.612;7.510;2023-08-08T05:01:07;8.13;;;6.77;;
1591;SDS011;789;51.612;7.510;2023-08-08T05:03:39;8.13;;;7.23;;
1591;SDS011;789;51.612;7.510;2023-08-08T05:06:07;8.77;;;7.87;;
1591;SDS011;789;51.612;7.510;2023-08-08T05:08:34;15.50;;;9.07;;
1591;SDS011;789;51.612;7.510;2023-08-08T05:11:00;9.77;;;8.50;;
1591;SDS011;789;51.612;7.510;2023-08-08T05:13:29;16.30;;;8.80;;
1591;SDS011;789;51.612;7.510;2023-08-08T05:15:56;11.43;;;9.07;;
1591;SDS011;789;51.612;7.510;2023-08-08T05:18:22;12.90;;;8.77;;
1591;SDS011;789;51.612;7.510;2023-08-08T05:20:49;12.80;;;8.60;;
1591;SDS011;789;51.612;7.510;2023-08-08T05:23:17;17.43;;;9.60;;
1591;SDS011;789;51.612;7.510;2023-08-08T05:25:44;12.50;;;8.97;;
1591;SDS011;789;51.612;7.510;2023-08-08T05:28:11;12.23;;;9.63;;
1591;SDS011;789;51.612;7.510;2023-08-08T05:30:38;11.70;;;9.60;;
1591;SDS011;789;51.612;7.510;2023-08-08T05:33:05;16.93;;;12.30;;
1591;SDS011;789;51.612;7.510;2023-08-08T05:35:32;14.67;;;10.20;;
1591;SDS011;789;51.612;7.510;2023-08-08T05:37:58;13.83;;;10.70;;
1591;SDS011;789;51.612;7.510;2023-08-08T05:40:27;16.80;;;11.30;;
1591;SDS011;789;51.612;7.510;2023-08-08T05:42:53;11.83;;;10.33;;
1591;SDS011;789;51.612;7.510;2023-08-08T05:45:20;17.90;;;11.83;;
1591;SDS011;789;51.612;7.510;2023-08-08T05:47:47;17.07;;;11.33;;
1591;SDS011;789;51.612;7.510;2023-08-08T05:50:14;18.23;;;12.50;;
1591;SDS011;789;51.612;7.510;2023-08-08T05:52:40;16.70;;;12.17;;
1591;SDS011;789;51.612;7.510;2023-08-08T05:55:07;15.80;;;12.97;;
1591;SDS011;789;51.612;7.510;2023-08-08T05:57:36;15.90;;;13.27;;
1591;SDS011;789;51.612;7.510;2023-08-08T06:00:03;16.87;;;12.70;;
1591;SDS011;789;51.612;7.510;2023-08-08T06:02:33;17.20;;;12.30;;
1591;SDS011;789;51.612;7.510;2023-08-08T06:05:00;17.43;;;14.10;;
1591;SDS011;789;51.612;7.510;2023-08-08T06:07:27;18.73;;;14.53;;
1591;SDS011;789;51.612;7.510;2023-08-08T06:09:53;15.73;;;14.03;;
1591;SDS011;789;51.612;7.510;2023-08-08T06:12:22;15.80;;;13.37;;
1591;SDS011;789;51.612;7.510;2023-08-08T06:14:50;25.63;;;15.40;;
1591;SDS011;789;51.612;7.510;2023-08-08T06:17:17;18.33;;;16.30;;
1591;SDS011;789;51.612;7.510;2023-08-08T06:19:43;17.57;;;15.10;;
1591;SDS011;789;51.612;7.510;2023-08-08T06:22:11;24.90;;;17.23;;
1591;SDS011;789;51.612;7.510;2023-08-08T06:24:38;23.00;;;17.63;;
1591;SDS011;789;51.612;7.510;2023-08-08T06:27:05;23.20;;;17.40;;
1591;SDS011;789;51.612;7.510;2023-08-08T06:29:32;24.17;;;17.50;;
1591;SDS011;789;51.612;7.510;2023-08-08T06:32:02;20.80;;;17.80;;
1591;SDS011;789;51.612;7.510;2023-08-08T06:34:32;23.23;;;18.77;;
1591;SDS011;789;51.612;7.510;2023-08-08T06:36:59;25.57;;;18.57;;
1591;SDS011;789;51.612;7.510;2023-08-08T06:39:27;24.40;;;19.57;;
1591;SDS011;789;51.612;7.510;2023-08-08T06:41:54;26.73;;;18.60;;
1591;SDS011;789;51.612;7.510;2023-08-08T06:44:21;24.13;;;18.83;;
1591;SDS011;789;51.612;7.510;2023-08-08T06:46:54;22.07;;;19.10;;
1591;SDS011;789;51.612;7.510;2023-08-08T06:49:22;30.03;;;19.63;;
1591;SDS011;789;51.612;7.510;2023-08-08T06:51:49;24.93;;;21.00;;
1591;SDS011;789;51.612;7.510;2023-08-08T06:54:16;27.83;;;21.30;;
1591;SDS011;789;51.612;7.510;2023-08-08T06:56:42;23.93;;;19.73;;
1591;SDS011;789;51.612;7.510;2023-08-08T06:59:09;27.70;;;20.53;;
1591;SDS011;789;51.612;7.510;2023-08-08T07:01:36;25.63;;;20.63;;
1591;SDS011;789;51.612;7.510;2023-08-08T07:04:03;27.60;;;20.07;;
1591;SDS011;789;51.612;7.510;2023-08-08T07:06:32;33.17;;;22.67;;
1591;SDS011;789;51.612;7.510;2023-08-08T07:08:58;30.00;;;21.23;;
1591;SDS011;789;51.612;7.510;2023-08-08T07:11:25;27.40;;;20.33;;
1591;SDS011;789;51.612;7.510;2023-08-08T07:13:53;31.33;;;20.93;;
1591;SDS011;789;51.612;7.510;2023-08-08T07:16:20;23.27;;;20.87;;
1591;SDS011;789;51.612;7.510;2023-08-08T07:18:46;33.90;;;20.33;;
1591;SDS011;789;51.612;7.510;2023-08-08T07:21:15;24.60;;;19.97;;
1591;SDS011;789;51.612;7.510;2023-08-08T07:23:49;35.20;;;20.70;;
1591;SDS011;789;51.612;7.510;2023-08-08T07:26:22;23.53;;;18.87;;
1591;SDS011;789;51.612;7.510;2023-08-08T07:28:49;25.73;;;19.13;;
1591;SDS011;789;51.612;7.510;2023-08-08T07:31:16;21.37;;;18.40;;
1591;SDS011;789;51.612;7.510;2023-08-08T07:34:04;24.03;;;19.97;;
1591;SDS011;789;51.612;7.510;2023-08-08T07:36:31;20.23;;;18.23;;
1591;SDS011;789;51.612;7.510;2023-08-08T07:38:59;24.53;;;18.27;;
1591;SDS011;789;51.612;7.510;2023-08-08T07:41:26;19.40;;;17.27;;
1591;SDS011;789;51.612;7.510;2023-08-08T07:43:55;23.87;;;17.97;;
1591;SDS011;789;51.612;7.510;2023-08-08T07:46:22;21.47;;;17.60;;
1591;SDS011;789;51.612;7.510;2023-08-08T07:48:49;23.53;;;17.80;;
1591;SDS011;789;51.612;7.510;2023-08-08T07:51:16;20.13;;;16.73;;
1591;SDS011;789;51.612;7.510;2023-08-08T07:53:43;19.57;;;16.33;;
1591;SDS011;789;51.612;7.510;2023-08-08T07:56:11;19.70;;;14.50;;
1591;SDS011;789;51.612;7.510;2023-08-08T07:58:38;20.67;;;15.93;;
1591;SDS011;789;51.612;7.510;2023-08-08T08:01:05;15.70;;;14.13;;
1591;SDS011;789;51.612;7.510;2023-08-08T08:03:34;21.00;;;13.73;;
1591;SDS011;789;51.612;7.510;2023-08-08T08:06:03;13.00;;;11.70;;
1591;SDS011;789;51.612;7.510;2023-08-08T08:08:29;14.53;;;12.70;;
1591;SDS011;789;51.612;7.510;2023-08-08T08:10:56;14.87;;;12.10;;
1591;SDS011;789;51.612;7.510;2023-08-08T08:13:24;17.90;;;13.00;;
1591;SDS011;789;51.612;7.510;2023-08-08T08:15:51;14.90;;;11.17;;
1591;SDS011;789;51.612;7.510;2023-08-08T08:18:18;12.40;;;10.27;;
1591;SDS011;789;51.612;7.510;2023-08-08T08:20:45;11.57;;;9.90;;
1591;SDS011;789;51.612;7.510;2023-08-08T08:23:12;12.60;;;9.63;;
1591;SDS011;789;51.612;7.510;2023-08-08T08:25:39;12.00;;;8.90;;
1591;SDS011;789;51.612;7.510;2023-08-08T08:28:06;15.50;;;9.00;;
1591;SDS011;789;51.612;7.510;2023-08-08T08:30:34;9.10;;;8.20;;
1591;SDS011;789;51.612;7.510;2023-08-08T08:33:02;12.13;;;7.60;;
1591;SDS011;789;51.612;7.510;2023-08-08T08:35:29;11.80;;;8.00;;
1591;SDS011;789;51.612;7.510;2023-08-08T08:37:56;12.93;;;7.70;;
1591;SDS011;789;51.612;7.510;2023-08-08T08:40:23;9.67;;;8.30;;
1591;SDS011;789;51.612;7.510;2023-08-08T08:42:50;17.83;;;8.90;;
1591;SDS011;789;51.612;7.510;2023-08-08T08:45:22;11.20;;;8.63;;
1591;SDS011;789;51.612;7.510;2023-08-08T08:47:56;12.57;;;7.77;;
1591;SDS011;789;51.612;7.510;2023-08-08T08:50:23;10.47;;;7.37;;
1591;SDS011;789;51.612;7.510;2023-08-08T08:52:53;7.80;;;7.00;;
1591;SDS011;789;51.612;7.510;2023-08-08T08:55:23;8.80;;;7.00;;
1591;SDS011;789;51.612;7.510;2023-08-08T08:57:51;10.00;;;6.90;;
1591;SDS011;789;51.612;7.510;2023-08-08T09:00:19;10.27;;;7.83;;
1591;SDS011;789;51.612;7.510;2023-08-08T09:02:47;13.90;;;7.43;;
1591;SDS011;789;51.612;7.510;2023-08-08T09:05:16;15.97;;;8.70;;
1591;SDS011;789;51.612;7.510;2023-08-08T09:07:47;10.03;;;7.13;;
1591;SDS011;789;51.612;7.510;2023-08-08T09:10:14;14.47;;;8.13;;
1591;SDS011;789;51.612;7.510;2023-08-08T09:12:42;12.17;;;7.13;;
1591;SDS011;789;51.612;7.510;2023-08-08T09:15:09;9.63;;;6.60;;
1591;SDS011;789;51.612;7.510;2023-08-08T09:17:40;8.10;;;7.30;;
1591;SDS011;789;51.612;7.510;2023-08-08T09:20:08;13.10;;;7.10;;
1591;SDS011;789;51.612;7.510;2023-08-08T09:22:38;8.37;;;6.30;;
1591;SDS011;789;51.612;7.510;2023-08-08T09:25:05;10.20;;;5.53;;
1591;SDS011;789;51.612;7.510;2023-08-08T09:27:33;6.97;;;5.40;;
1591;SDS011;789;51.612;7.510;2023-08-08T09:30:00;13.23;;;5.60;;
1591;SDS011;789;51.612;7.510;2023-08-08T09:32:28;8.23;;;4.60;;
1591;SDS011;789;51.612;7.510;2023-08-08T09:34:56;10.10;;;4.13;;
1591;SDS011;789;51.612;7.510;2023-08-08T09:37:23;8.10;;;3.80;;
1591;SDS011;789;51.612;7.510;2023-08-08T09:39:56;8.50;;;4.63;;
1591;SDS011;789;51.612;7.510;2023-08-08T09:42:23;6.03;;;3.87;;
1591;SDS011;789;51.612;7.510;2023-08-08T09:44:52;6.27;;;3.83;;
1591;SDS011;789;51.612;7.510;2023-08-08T09:47:20;6.90;;;3.87;;
1591;SDS011;789;51.612;7.510;2023-08-08T09:49:47;9.23;;;4.40;;
1591;SDS011;789;51.612;7.510;2023-08-08T09:52:15;8.37;;;4.03;;
1591;SDS011;789;51.612;7.510;2023-08-08T09:54:42;5.80;;;3.53;;
1591;SDS011;789;51.612;7.510;2023-08-08T09:57:10;8.20;;;4.07;;
1591;SDS011;789;51.612;7.510;2023-08-08T09:59:38;7.43;;;4.40;;
1591;SDS011;789;51.612;7.510;2023-08-08T10:02:08;8.50;;;4.10;;
1591;SDS011;789;51.612;7.510;2023-08-08T10:04:39;5.37;;;3.50;;
1591;SDS011;789;51.612;7.510;2023-08-08T10:07:11;8.90;;;3.80;;
1591;SDS011;789;51.612;7.510;2023-08-08T10:09:38;7.30;;;3.10;;
1591;SDS011;789;51.612;7.510;2023-08-08T10:12:05;10.37;;;3.40;;
1591;SDS011;789;51.612;7.510;2023-08-08T10:14:36;6.90;;;3.30;;
1591;SDS011;789;51.612;7.510;2023-08-08T10:17:04;7.00;;;2.67;;
1591;SDS011;789;51.612;7.510;2023-08-08T10:19:33;6.60;;;2.97;;
1591;SDS011;789;51.612;7.510;2023-08-08T10:22:03;9.50;;;3.00;;
1591;SDS011;789;51.612;7.510;2023-08-08T10:24:32;4.70;;;3.37;;
1591;SDS011;789;51.612;7.510;2023-08-08T10:27:00;9.60;;;3.20;;
1591;SDS011;789;51.612;7.510;2023-08-08T10:29:46;6.43;;;3.60;;
1591;SDS011;789;51.612;7.510;2023-08-08T10:32:21;11.50;;;3.77;;
1591;SDS011;789;51.612;7.510;2023-08-08T10:34:54;5.83;;;3.30;;
1591;SDS011;789;51.612;7.510;2023-08-08T10:37:22;8.33;;;3.83;;
1591;SDS011;789;51.612;7.510;2023-08-08T10:39:52;6.00;;;3.00;;
1591;SDS011;789;51.612;7.510;2023-08-08T10:42:20;5.03;;;3.10;;
1591;SDS011;789;51.612;7.510;2023-08-08T10:44:52;5.97;;;3.83;;
1591;SDS011;789;51.612;7.510;2023-08-08T10:47:23;7.10;;;3.80;;
1591;SDS011;789;51.612;7.510;2023-08-08T10:49:57;6.80;;;3.60;;
1591;SDS011;789;51.612;7.510;2023-08-08T10:52:25;6.00;;;3.87;;
1591;SDS011;789;51.612;7.510;2023-08-08T10:54:52;5.30;;;3.80;;
1591;SDS011;789;51.612;7.510;2023-08-08T10:57:20;8.23;;;4.20;;
1591;SDS011;789;51.612;7.510;2023-08-08T10:59:51;5.67;;;3.97;;
1591;SDS011;789;51.612;7.510;2023-08-08T11:02:19;6.63;;;3.73;;
1591;SDS011;789;51.612;7.510;2023-08-08T11:04:47;4.80;;;3.93;;
1591;SDS011;789;51.612;7.510;2023-08-08T11:07:15;5.73;;;3.80;;
1591;SDS011;789;51.612;7.510;2023-08-08T11:09:42;4.93;;;3.80;;
1591;SDS011;789;51.612;7.510;2023-08-08T11:12:13;5.57;;;4.27;;
1591;SDS011;789;51.612;7.510;2023-08-08T11:14:40;9.03;;;6.00;;
1591;SDS011;789;51.612;7.510;2023-08-08T11:17:08;6.53;;;4.40;;
1591;SDS011;789;51.612;7.510;2023-08-08T11:19:40;9.20;;;5.47;;
1591;SDS011;789;51.612;7.510;2023-08-08T11:22:10;8.83;;;5.00;;
1591;SDS011;789;51.612;7.510;2023-08-08T11:24:37;7.13;;;5.20;;
1591;SDS011;789;51.612;7.510;2023-08-08T11:27:04;6.37;;;5.00;;
1591;SDS011;789;51.612;7.510;2023-08-08T11:29:31;9.20;;;5.50;;
1591;SDS011;789;51.612;7.510;2023-08-08T11:31:59;7.80;;;4.60;;
1591;SDS011;789;51.612;7.510;2023-08-08T11:34:28;7.90;;;7.17;;
1591;SDS011;789;51.612;7.510;2023-08-08T11:36:57;5.30;;;3.90;;
1591;SDS011;789;51.612;7.510;2023-08-08T11:39:24;8.40;;;4.57;;
1591;SDS011;789;51.612;7.510;2023-08-08T11:41:54;4.63;;;3.27;;
1591;SDS011;789;51.612;7.510;2023-08-08T11:44:21;4.10;;;3.60;;
1591;SDS011;789;51.612;7.510;2023-08-08T11:46:48;6.10;;;3.80;;
1591;SDS011;789;51.612;7.510;2023-08-08T11:49:15;7.93;;;4.20;;
1591;SDS011;789;51.612;7.510;2023-08-08T11:51:44;8.30;;;4.20;;
1591;SDS011;789;51.612;7.510;2023-08-08T11:54:14;4.53;;;3.67;;
1591;SDS011;789;51.612;7.510;2023-08-08T11:56:40;8.90;;;3.80;;
1591;SDS011;789;51.612;7.510;2023-08-08T11:59:08;6.07;;;3.97;;
1591;SDS011;789;51.612;7.510;2023-08-08T12:01:37;5.50;;;4.20;;
1591;SDS011;789;51.612;7.510;2023-08-08T12:04:05;5.77;;;3.93;;
1591;SDS011;789;51.612;7.510;2023-08-08T12:06:32;9.17;;;5.33;;
1591;SDS011;789;51.612;7.510;2023-08-08T12:09:04;7.53;;;4.93;;
1591;SDS011;789;51.612;7.510;2023-08-08T12:11:33;6.17;;;4.00;;
1591;SDS011;789;51.612;7.510;2023-08-08T12:14:01;7.10;;;4.03;;
1591;SDS011;789;51.612;7.510;2023-08-08T12:16:28;8.20;;;3.87;;
1591;SDS011;789;51.612;7.510;2023-08-08T12:18:55;8.63;;;3.53;;
1591;SDS011;789;51.612;7.510;2023-08-08T12:21:22;4.10;;;3.00;;
1591;SDS011;789;51.612;7.510;2023-08-08T12:23:49;8.23;;;3.13;;
1591;SDS011;789;51.612;7.510;2023-08-08T12:26:18;7.13;;;3.03;;
1591;SDS011;789;51.612;7.510;2023-08-08T12:28:45;7.50;;;3.20;;
1591;SDS011;789;51.612;7.510;2023-08-08T12:31:11;5.97;;;3.23;;
1591;SDS011;789;51.612;7.510;2023-08-08T12:33:40;6.37;;;3.00;;
1591;SDS011;789;51.612;7.510;2023-08-08T12:36:06;6.27;;;3.00;;
1591;SDS011;789;51.612;7.510;2023-08-08T12:38:33;4.30;;;2.63;;
1591;SDS011;789;51.612;7.510;2023-08-08T12:41:00;5.80;;;2.90;;
1591;SDS011;789;51.612;7.510;2023-08-08T12:43:29;6.70;;;3.83;;
1591;SDS011;789;51.612;7.510;2023-08-08T12:45:56;7.23;;;3.60;;
1591;SDS011;789;51.612;7.510;2023-08-08T12:48:23;6.40;;;3.20;;
1591;SDS011;789;51.612;7.510;2023-08-08T12:50:49;7.23;;;3.10;;
1591;SDS011;789;51.612;7.510;2023-08-08T12:53:16;3.77;;;3.03;;
1591;SDS011;789;51.612;7.510;2023-08-08T12:55:43;4.87;;;3.37;;
1591;SDS011;789;51.612;7.510;2023-08-08T12:58:10;4.30;;;3.13;;
1591;SDS011;789;51.612;7.510;2023-08-08T13:00:38;4.70;;;2.67;;
1591;SDS011;789;51.612;7.510;2023-08-08T13:03:06;4.00;;;2.93;;
1591;SDS011;789;51.612;7.510;2023-08-08T13:05:32;5.27;;;2.77;;
1591;SDS011;789;51.612;7.510;2023-08-08T13:07:59;7.87;;;2.53;;
1591;SDS011;789;51.612;7.510;2023-08-08T13:10:26;8.03;;;3.30;;
1591;SDS011;789;51.612;7.510;2023-08-08T13:12:54;4.20;;;2.80;;
1591;SDS011;789;51.612;7.510;2023-08-08T13:15:21;4.60;;;2.83;;
1591;SDS011;789;51.612;7.510;2023-08-08T13:17:49;5.10;;;2.87;;
1591;SDS011;789;51.612;7.510;2023-08-08T13:20:16;4.40;;;2.77;;
1591;SDS011;789;51.612;7.510;2023-08-08T13:22:43;9.97;;;3.00;;
1591;SDS011;789;51.612;7.510;2023-08-08T13:25:10;5.17;;;3.30;;
1591;SDS011;789;51.612;7.510;2023-08-08T13:27:37;7.30;;;2.90;;
1591;SDS011;789;51.612;7.510;2023-08-08T13:30:05;6.57;;;3.10;;
1591;SDS011;789;51.612;7.510;2023-08-08T13:32:32;6.63;;;2.73;;
1591;SDS011;789;51.612;7.510;2023-08-08T13:35:00;4.03;;;2.40;;
1591;SDS011;789;51.612;7.510;2023-08-08T13:37:27;2.70;;;2.13;;
1591;SDS011;789;51.612;7.510;2023-08-08T13:39:54;8.30;;;2.60;;
1591;SDS011;789;51.612;7.510;2023-08-08T13:42:21;5.17;;;2.60;;
1591;SDS011;789;51.612;7.510;2023-08-08T13:44:47;9.23;;;2.60;;
1591;SDS011;789;51.612;7.510;2023-08-08T13:47:14;3.47;;;2.23;;
1591;SDS011;789;51.612;7.510;2023-08-08T13:49:41;6.73;;;2.50;;
1591;SDS011;789;51.612;7.510;2023-08-08T13:52:10;6.23;;;2.67;;
1591;SDS011;789;51.612;7.510;2023-08-08T13:54:38;5.53;;;3.43;;
1591;SDS011;789;51.612;7.510;2023-08-08T13:57:04;7.90;;;2.83;;
1591;SDS011;789;51.612;7.510;2023-08-08T13:59:31;7.93;;;3.20;;
1591;SDS011;789;51.612;7.510;2023-08-08T14:01:58;6.90;;;3.03;;
1591;SDS011;789;51.612;7.510;2023-08-08T14:04:25;4.87;;;2.90;;
1591;SDS011;789;51.612;7.510;2023-08-08T14:06:52;7.63;;;3.43;;
1591;SDS011;789;51.612;7.510;2023-08-08T14:09:20;7.80;;;3.00;;
1591;SDS011;789;51.612;7.510;2023-08-08T14:11:46;5.40;;;3.33;;
1591;SDS011;789;51.612;7.510;2023-08-08T14:14:13;6.50;;;3.20;;
1591;SDS011;789;51.612;7.510;2023-08-08T14:16:40;9.00;;;3.10;;
1591;SDS011;789;51.612;7.510;2023-08-08T14:19:07;6.30;;;2.83;;
1591;SDS011;789;51.612;7.510;2023-08-08T14:21:34;3.70;;;2.97;;
1591;SDS011;789;51.612;7.510;2023-08-08T14:24:00;6.60;;;2.77;;
1591;SDS011;789;51.612;7.510;2023-08-08T14:26:31;6.40;;;2.57;;
1591;SDS011;789;51.612;7.510;2023-08-08T14:28:58;5.30;;;3.13;;
1591;SDS011;789;51.612;7.510;2023-08-08T14:31:24;4.43;;;2.63;;
1591;SDS011;789;51.612;7.510;2023-08-08T14:33:51;5.20;;;2.73;;
1591;SDS011;789;51.612;7.510;2023-08-08T14:36:18;10.10;;;3.30;;
1591;SDS011;789;51.612;7.510;2023-08-08T14:38:45;4.13;;;2.77;;
1591;SDS011;789;51.612;7.510;2023-08-08T14:41:12;8.97;;;3.30;;
1591;SDS011;789;51.612;7.510;2023-08-08T14:43:40;4.83;;;3.23;;
1591;SDS011;789;51.612;7.510;2023-08-08T14:46:07;6.40;;;3.33;;
1591;SDS011;789;51.612;7.510;2023-08-08T14:48:34;7.20;;;3.33;;
1591;SDS011;789;51.612;7.510;2023-08-08T14:51:03;9.13;;;3.27;;
1591;SDS011;789;51.612;7.510;2023-08-08T14:53:30;6.53;;;3.77;;
1591;SDS011;789;51.612;7.510;2023-08-08T14:56:01;6.60;;;3.40;;
1591;SDS011;789;51.612;7.510;2023-08-08T14:58:28;5.77;;;3.00;;
1591;SDS011;789;51.612;7.510;2023-08-08T15:00:56;6.97;;;3.00;;
1591;SDS011;789;51.612;7.510;2023-08-08T15:03:23;3.83;;;2.70;;
1591;SDS011;789;51.612;7.510;2023-08-08T15:05:50;4.17;;;2.77;;
1591;SDS011;789;51.612;7.510;2023-08-08T15:08:16;4.20;;;2.43;;
1591;SDS011;789;51.612;7.510;2023-08-08T15:10:43;6.53;;;2.90;;
1591;SDS011;789;51.612;7.510;2023-08-08T15:13:10;4.00;;;3.10;;
1591;SDS011;789;51.612;7.510;2023-08-08T15:15:37;8.10;;;2.93;;
1591;SDS011;789;51.612;7.510;2023-08-08T15:18:06;3.37;;;2.60;;
1591;SDS011;789;51.612;7.510;2023-08-08T15:20:33;4.77;;;2.60;;
1591;SDS011;789;51.612;7.510;2023-08-08T15:23:01;6.07;;;2.60;;
1591;SDS011;789;51.612;7.510;2023-08-08T15:25:28;4.43;;;2.37;;